Airfield :
LOGIN :

Register | Disclaimer

   EN    FR    IT 

 










Legend :    VFR   Marginal VFR   IFR   Intensive IFR   Very Intensive IFR
Visi :
Ceiling :
>= 8 km
>= 3000ft
5 to 8 km
1000 to 3000 ft
1500m to 5 km
500 to 1000 ft
800 to 1500m
200 to 500 ft
< 800m
< 200 ft
Symbols :   Thunderstorms  Fog  Heavy snow  Heavy precipitations  Wind > 20 kt
SIGMETs :     Misc.  Thunderstorms  Icing  Turbulence  Mountain Waves  Volcanic Ashes







- Airport Elevation : 479 ft
- IATA code : DOL
- Download approach charts


LFRG - Deauville

CURRENT METAR :
  • 190130Z AUTO 20004KT 9999 FEW014 SCT020 BKN027 06/05 Q1026

EXPIRED METARs :
  • 190100Z AUTO 20002KT 6000 -RA SCT010/// BKN016/// BKN021/// ///TCU 06/05 Q1026
  • 190030Z AUTO 24004KT 5000 RA BR FEW025/// BKN034/// OVC041/// ///TCU 06/05 Q1026
  • 190000Z AUTO 22005KT 9999 FEW024/// BKN036/// OVC045/// ///TCU 06/05 Q1026
  • 182330Z AUTO 22005KT 9999 FEW015/// BKN030/// OVC035/// ///TCU 06/05 Q1026
  • 182300Z AUTO 23005KT 9999 BKN026/// OVC036/// ///TCU 06/05 Q1026

Expired Forecast.
ATIS : +33 2 31 65 65 36
No reported NOTAMs for that airfield.



MET'MAP, your aeronautical weather chart ! - Copyright ORBIFLY December 2007 - Disclaimer

ORBIFLY MET'MAP TEAM :

Programming & Development : Alexandra Zaïnal
Concept & Development : Baudouin d'Aumeries
Co-Development & Prog : Marc-Olivier Méhu
Technical & hardware support : Manuel Goepfert

Contact : metmap@orbifly.com




SOURCES & CREDITS :

   NOAA